sensor_id;sensor_type;location;lat;lon;timestamp;temperature;humidity
23744;DHT22;12052;53.478;10.182;2022-08-02T00:00:51;13.60;99.90
23744;DHT22;12052;53.478;10.182;2022-08-02T00:03:17;13.60;99.90
23744;DHT22;12052;53.478;10.182;2022-08-02T00:05:42;13.70;99.90
23744;DHT22;12052;53.478;10.182;2022-08-02T00:08:08;13.60;99.90
23744;DHT22;12052;53.478;10.182;2022-08-02T00:10:33;13.60;99.90
23744;DHT22;12052;53.478;10.182;2022-08-02T00:12:59;13.60;99.90
23744;DHT22;12052;53.478;10.182;2022-08-02T00:15:25;13.60;99.90
23744;DHT22;12052;53.478;10.182;2022-08-02T00:17:51;13.50;99.90
23744;DHT22;12052;53.478;10.182;2022-08-02T00:20:16;13.50;99.90
23744;DHT22;12052;53.478;10.182;2022-08-02T00:22:42;13.50;99.90
23744;DHT22;12052;53.478;10.182;2022-08-02T00:25:08;13.50;99.90
23744;DHT22;12052;53.478;10.182;2022-08-02T00:27:34;13.50;99.90
23744;DHT22;12052;53.478;10.182;2022-08-02T00:29:59;13.50;99.90
23744;DHT22;12052;53.478;10.182;2022-08-02T00:32:25;13.50;99.90
23744;DHT22;12052;53.478;10.182;2022-08-02T00:34:50;13.40;99.90
23744;DHT22;12052;53.478;10.182;2022-08-02T00:37:16;13.40;99.90
23744;DHT22;12052;53.478;10.182;2022-08-02T00:39:42;13.40;99.90
23744;DHT22;12052;53.478;10.182;2022-08-02T00:42:08;13.30;99.90
23744;DHT22;12052;53.478;10.182;2022-08-02T00:44:34;13.30;99.90
23744;DHT22;12052;53.478;10.182;2022-08-02T00:46:59;13.20;99.90
23744;DHT22;12052;53.478;10.182;2022-08-02T00:49:25;13.20;99.90
23744;DHT22;12052;53.478;10.182;2022-08-02T00:51:51;13.10;99.90
23744;DHT22;12052;53.478;10.182;2022-08-02T00:54:16;13.10;99.90
23744;DHT22;12052;53.478;10.182;2022-08-02T00:56:42;13.00;99.90
23744;DHT22;12052;53.478;10.182;2022-08-02T00:59:07;13.00;99.90
23744;DHT22;12052;53.478;10.182;2022-08-02T01:01:33;13.00;99.90
23744;DHT22;12052;53.478;10.182;2022-08-02T01:04:09;13.00;99.90
23744;DHT22;12052;53.478;10.182;2022-08-02T01:06:37;12.90;99.90
23744;DHT22;12052;53.478;10.182;2022-08-02T01:09:04;12.90;99.90
23744;DHT22;12052;53.478;10.182;2022-08-02T01:11:30;12.90;99.90
23744;DHT22;12052;53.478;10.182;2022-08-02T01:14:00;12.90;99.90
23744;DHT22;12052;53.478;10.182;2022-08-02T01:16:28;12.90;99.90
23744;DHT22;12052;53.478;10.182;2022-08-02T01:19:01;12.90;99.90
23744;DHT22;12052;53.478;10.182;2022-08-02T01:21:49;12.80;99.90
23744;DHT22;12052;53.478;10.182;2022-08-02T01:30:10;12.70;99.90
23744;DHT22;12052;53.478;10.182;2022-08-02T01:32:42;12.60;99.90
23744;DHT22;12052;53.478;10.182;2022-08-02T01:35:22;12.60;99.90
23744;DHT22;12052;53.478;10.182;2022-08-02T01:37:54;12.60;99.90
23744;DHT22;12052;53.478;10.182;2022-08-02T01:40:27;12.60;99.90
23744;DHT22;12052;53.478;10.182;2022-08-02T01:42:54;12.60;99.90
23744;DHT22;12052;53.478;10.182;2022-08-02T01:45:21;12.60;99.90
23744;DHT22;12052;53.478;10.182;2022-08-02T01:47:49;12.60;99.90
23744;DHT22;12052;53.478;10.182;2022-08-02T01:50:18;12.60;99.90
23744;DHT22;12052;53.478;10.182;2022-08-02T01:52:51;12.60;99.90
23744;DHT22;12052;53.478;10.182;2022-08-02T01:55:53;12.50;99.90
23744;DHT22;12052;53.478;10.182;2022-08-02T01:58:19;12.50;99.90
23744;DHT22;12052;53.478;10.182;2022-08-02T02:00:48;12.50;99.90
23744;DHT22;12052;53.478;10.182;2022-08-02T02:03:19;12.40;99.90
23744;DHT22;12052;53.478;10.182;2022-08-02T02:05:47;12.40;99.90
23744;DHT22;12052;53.478;10.182;2022-08-02T02:08:13;12.40;99.90
23744;DHT22;12052;53.478;10.182;2022-08-02T02:10:44;12.40;99.90
23744;DHT22;12052;53.478;10.182;2022-08-02T02:13:15;12.30;99.90
23744;DHT22;12052;53.478;10.182;2022-08-02T02:15:46;12.30;99.90
23744;DHT22;12052;53.478;10.182;2022-08-02T02:18:19;12.30;99.90
23744;DHT22;12052;53.478;10.182;2022-08-02T02:20:46;12.30;99.90
23744;DHT22;12052;53.478;10.182;2022-08-02T02:23:12;12.20;99.90
23744;DHT22;12052;53.478;10.182;2022-08-02T02:25:40;12.20;99.90
23744;DHT22;12052;53.478;10.182;2022-08-02T02:28:10;12.20;99.90
23744;DHT22;12052;53.478;10.182;2022-08-02T02:30:37;12.20;99.90
23744;DHT22;12052;53.478;10.182;2022-08-02T02:33:05;12.20;99.90
23744;DHT22;12052;53.478;10.182;2022-08-02T02:35:34;12.10;99.90
23744;DHT22;12052;53.478;10.182;2022-08-02T02:38:04;12.10;99.90
23744;DHT22;12052;53.478;10.182;2022-08-02T02:40:30;12.10;99.90
23744;DHT22;12052;53.478;10.182;2022-08-02T02:42:59;12.00;99.90
23744;DHT22;12052;53.478;10.182;2022-08-02T02:45:26;12.00;99.90
23744;DHT22;12052;53.478;10.182;2022-08-02T02:47:54;12.00;99.90
23744;DHT22;12052;53.478;10.182;2022-08-02T02:50:20;11.90;99.90
23744;DHT22;12052;53.478;10.182;2022-08-02T02:52:46;11.90;99.90
23744;DHT22;12052;53.478;10.182;2022-08-02T02:55:13;11.90;99.90
23744;DHT22;12052;53.478;10.182;2022-08-02T02:57:39;11.90;99.90
23744;DHT22;12052;53.478;10.182;2022-08-02T03:00:08;11.80;99.90
23744;DHT22;12052;53.478;10.182;2022-08-02T03:02:37;11.80;99.90
23744;DHT22;12052;53.478;10.182;2022-08-02T03:05:04;11.70;99.90
23744;DHT22;12052;53.478;10.182;2022-08-02T03:07:32;11.80;99.90
23744;DHT22;12052;53.478;10.182;2022-08-02T03:09:58;11.70;99.90
23744;DHT22;12052;53.478;10.182;2022-08-02T03:12:24;11.70;99.90
23744;DHT22;12052;53.478;10.182;2022-08-02T03:14:50;11.70;99.90
23744;DHT22;12052;53.478;10.182;2022-08-02T03:17:16;11.70;99.90
23744;DHT22;12052;53.478;10.182;2022-08-02T03:19:42;11.60;99.90
23744;DHT22;12052;53.478;10.182;2022-08-02T03:22:07;11.60;99.90
23744;DHT22;12052;53.478;10.182;2022-08-02T03:24:33;11.60;99.90
23744;DHT22;12052;53.478;10.182;2022-08-02T03:26:58;11.60;99.90
23744;DHT22;12052;53.478;10.182;2022-08-02T03:29:24;11.60;99.90
23744;DHT22;12052;53.478;10.182;2022-08-02T03:31:50;11.50;99.90
23744;DHT22;12052;53.478;10.182;2022-08-02T03:34:15;11.50;99.90
23744;DHT22;12052;53.478;10.182;2022-08-02T03:36:42;11.50;99.90
23744;DHT22;12052;53.478;10.182;2022-08-02T03:39:08;11.50;99.90
23744;DHT22;12052;53.478;10.182;2022-08-02T03:41:35;11.50;99.90
23744;DHT22;12052;53.478;10.182;2022-08-02T03:44:03;11.50;99.90
23744;DHT22;12052;53.478;10.182;2022-08-02T03:46:29;11.40;99.90
23744;DHT22;12052;53.478;10.182;2022-08-02T03:48:56;11.40;99.90
23744;DHT22;12052;53.478;10.182;2022-08-02T03:51:23;11.40;99.90
23744;DHT22;12052;53.478;10.182;2022-08-02T03:53:49;11.40;99.90
23744;DHT22;12052;53.478;10.182;2022-08-02T03:56:15;11.40;99.90
23744;DHT22;12052;53.478;10.182;2022-08-02T03:58:41;11.40;99.90
23744;DHT22;12052;53.478;10.182;2022-08-02T04:01:07;11.40;99.90
23744;DHT22;12052;53.478;10.182;2022-08-02T04:03:32;11.40;99.90
23744;DHT22;12052;53.478;10.182;2022-08-02T04:05:58;11.40;99.90
23744;DHT22;12052;53.478;10.182;2022-08-02T04:08:23;11.40;99.90
23744;DHT22;12052;53.478;10.182;2022-08-02T04:10:49;11.40;99.90
23744;DHT22;12052;53.478;10.182;2022-08-02T04:13:35;11.40;99.90
23744;DHT22;12052;53.478;10.182;2022-08-02T04:16:12;11.50;99.90
23744;DHT22;12052;53.478;10.182;2022-08-02T04:18:45;11.40;99.90
23744;DHT22;12052;53.478;10.182;2022-08-02T04:21:16;11.40;99.90
23744;DHT22;12052;53.478;10.182;2022-08-02T04:23:42;11.30;99.90
23744;DHT22;12052;53.478;10.182;2022-08-02T04:26:10;11.30;99.90
23744;DHT22;12052;53.478;10.182;2022-08-02T04:28:36;11.30;99.90
23744;DHT22;12052;53.478;10.182;2022-08-02T04:31:02;11.30;99.90
23744;DHT22;12052;53.478;10.182;2022-08-02T04:33:29;11.30;99.90
23744;DHT22;12052;53.478;10.182;2022-08-02T04:35:55;11.30;99.90
23744;DHT22;12052;53.478;10.182;2022-08-02T04:38:23;11.30;99.90
23744;DHT22;12052;53.478;10.182;2022-08-02T04:40:51;11.20;99.90
23744;DHT22;12052;53.478;10.182;2022-08-02T04:43:17;11.20;99.90
23744;DHT22;12052;53.478;10.182;2022-08-02T04:45:44;11.20;99.90
23744;DHT22;12052;53.478;10.182;2022-08-02T04:48:10;11.20;99.90
23744;DHT22;12052;53.478;10.182;2022-08-02T04:50:36;11.20;99.90
23744;DHT22;12052;53.478;10.182;2022-08-02T04:53:02;11.20;99.90
23744;DHT22;12052;53.478;10.182;2022-08-02T04:55:27;11.20;99.90
23744;DHT22;12052;53.478;10.182;2022-08-02T04:57:54;11.30;99.90
23744;DHT22;12052;53.478;10.182;2022-08-02T05:00:20;11.30;99.90
23744;DHT22;12052;53.478;10.182;2022-08-02T05:02:46;11.20;99.90
23744;DHT22;12052;53.478;10.182;2022-08-02T05:05:12;11.20;99.90
23744;DHT22;12052;53.478;10.182;2022-08-02T05:07:37;11.20;99.90
23744;DHT22;12052;53.478;10.182;2022-08-02T05:10:03;11.20;99.90
23744;DHT22;12052;53.478;10.182;2022-08-02T05:12:29;11.20;99.90
23744;DHT22;12052;53.478;10.182;2022-08-02T05:14:55;11.30;99.90
23744;DHT22;12052;53.478;10.182;2022-08-02T05:17:20;11.20;99.90
23744;DHT22;12052;53.478;10.182;2022-08-02T05:19:46;11.20;99.90
23744;DHT22;12052;53.478;10.182;2022-08-02T05:22:12;11.30;99.90
23744;DHT22;12052;53.478;10.182;2022-08-02T05:24:37;11.30;99.90
23744;DHT22;12052;53.478;10.182;2022-08-02T05:27:03;11.40;99.90
23744;DHT22;12052;53.478;10.182;2022-08-02T05:29:28;11.40;99.90
23744;DHT22;12052;53.478;10.182;2022-08-02T05:31:54;11.50;99.90
23744;DHT22;12052;53.478;10.182;2022-08-02T05:34:20;11.60;99.90
23744;DHT22;12052;53.478;10.182;2022-08-02T05:36:45;11.60;99.90
23744;DHT22;12052;53.478;10.182;2022-08-02T05:39:11;11.70;99.90
23744;DHT22;12052;53.478;10.182;2022-08-02T05:41:36;11.80;99.90
23744;DHT22;12052;53.478;10.182;2022-08-02T05:44:03;11.90;99.90
23744;DHT22;12052;53.478;10.182;2022-08-02T05:46:28;12.10;99.90
23744;DHT22;12052;53.478;10.182;2022-08-02T05:48:54;12.20;99.90
23744;DHT22;12052;53.478;10.182;2022-08-02T05:51:30;12.30;99.90
23744;DHT22;12052;53.478;10.182;2022-08-02T05:56:45;12.70;99.90
23744;DHT22;12052;53.478;10.182;2022-08-02T05:59:25;12.80;99.90
23744;DHT22;12052;53.478;10.182;2022-08-02T06:01:55;13.00;99.90
23744;DHT22;12052;53.478;10.182;2022-08-02T06:04:31;13.20;99.90
23744;DHT22;12052;53.478;10.182;2022-08-02T06:07:00;13.20;99.90
23744;DHT22;12052;53.478;10.182;2022-08-02T06:09:32;13.40;99.90
23744;DHT22;12052;53.478;10.182;2022-08-02T06:11:58;13.50;99.90
23744;DHT22;12052;53.478;10.182;2022-08-02T06:14:24;13.60;99.90
23744;DHT22;12052;53.478;10.182;2022-08-02T06:16:50;13.70;99.90
23744;DHT22;12052;53.478;10.182;2022-08-02T06:19:17;13.90;99.90
23744;DHT22;12052;53.478;10.182;2022-08-02T06:21:44;13.90;99.90
23744;DHT22;12052;53.478;10.182;2022-08-02T06:24:11;13.90;99.90
23744;DHT22;12052;53.478;10.182;2022-08-02T06:26:37;14.10;99.90
23744;DHT22;12052;53.478;10.182;2022-08-02T06:29:03;14.20;99.90
23744;DHT22;12052;53.478;10.182;2022-08-02T06:31:29;14.30;99.90
23744;DHT22;12052;53.478;10.182;2022-08-02T06:33:55;14.40;99.90
23744;DHT22;12052;53.478;10.182;2022-08-02T06:36:39;14.50;99.90
23744;DHT22;12052;53.478;10.182;2022-08-02T06:39:26;14.60;99.90
23744;DHT22;12052;53.478;10.182;2022-08-02T06:41:57;14.70;99.90
23744;DHT22;12052;53.478;10.182;2022-08-02T06:44:25;14.70;99.90
23744;DHT22;12052;53.478;10.182;2022-08-02T06:46:51;14.80;99.90
23744;DHT22;12052;53.478;10.182;2022-08-02T06:49:17;14.90;99.90
23744;DHT22;12052;53.478;10.182;2022-08-02T06:51:42;15.00;99.90
23744;DHT22;12052;53.478;10.182;2022-08-02T06:54:08;15.10;99.90
23744;DHT22;12052;53.478;10.182;2022-08-02T06:56:33;15.30;99.90
23744;DHT22;12052;53.478;10.182;2022-08-02T06:58:59;15.30;99.90
23744;DHT22;12052;53.478;10.182;2022-08-02T07:01:24;15.30;99.90
23744;DHT22;12052;53.478;10.182;2022-08-02T07:03:50;15.40;99.90
23744;DHT22;12052;53.478;10.182;2022-08-02T07:06:15;15.60;99.90
23744;DHT22;12052;53.478;10.182;2022-08-02T07:08:41;15.70;99.90
23744;DHT22;12052;53.478;10.182;2022-08-02T07:11:08;15.70;99.90
23744;DHT22;12052;53.478;10.182;2022-08-02T07:13:34;15.80;99.90
23744;DHT22;12052;53.478;10.182;2022-08-02T07:16:00;15.90;99.90
23744;DHT22;12052;53.478;10.182;2022-08-02T07:18:26;16.00;99.90
23744;DHT22;12052;53.478;10.182;2022-08-02T07:20:52;16.10;99.90
23744;DHT22;12052;53.478;10.182;2022-08-02T07:23:18;16.20;99.90
23744;DHT22;12052;53.478;10.182;2022-08-02T07:25:44;16.20;99.90
23744;DHT22;12052;53.478;10.182;2022-08-02T07:28:11;16.30;99.90
23744;DHT22;12052;53.478;10.182;2022-08-02T07:30:36;16.40;99.90
23744;DHT22;12052;53.478;10.182;2022-08-02T07:33:03;16.40;99.90
23744;DHT22;12052;53.478;10.182;2022-08-02T07:35:29;16.50;99.90
23744;DHT22;12052;53.478;10.182;2022-08-02T07:37:54;16.60;99.90
23744;DHT22;12052;53.478;10.182;2022-08-02T07:40:21;16.70;99.90
23744;DHT22;12052;53.478;10.182;2022-08-02T07:42:48;16.80;99.90
23744;DHT22;12052;53.478;10.182;2022-08-02T07:45:16;16.90;99.90
23744;DHT22;12052;53.478;10.182;2022-08-02T07:47:43;16.90;99.90
23744;DHT22;12052;53.478;10.182;2022-08-02T07:50:10;17.10;99.90
23744;DHT22;12052;53.478;10.182;2022-08-02T07:52:36;17.30;99.90
23744;DHT22;12052;53.478;10.182;2022-08-02T07:55:05;17.30;99.90
23744;DHT22;12052;53.478;10.182;2022-08-02T07:57:31;17.50;99.90
23744;DHT22;12052;53.478;10.182;2022-08-02T07:59:57;17.70;99.90
23744;DHT22;12052;53.478;10.182;2022-08-02T08:02:23;17.90;99.90
23744;DHT22;12052;53.478;10.182;2022-08-02T08:04:52;17.90;99.90
23744;DHT22;12052;53.478;10.182;2022-08-02T08:07:17;18.00;99.90
23744;DHT22;12052;53.478;10.182;2022-08-02T08:09:43;18.20;99.90
23744;DHT22;12052;53.478;10.182;2022-08-02T08:12:10;18.30;99.90
23744;DHT22;12052;53.478;10.182;2022-08-02T08:14:37;18.30;99.90
23744;DHT22;12052;53.478;10.182;2022-08-02T08:17:04;18.40;99.90
23744;DHT22;12052;53.478;10.182;2022-08-02T08:19:30;18.50;99.90
23744;DHT22;12052;53.478;10.182;2022-08-02T08:21:55;18.70;99.90
23744;DHT22;12052;53.478;10.182;2022-08-02T08:24:21;18.70;99.90
23744;DHT22;12052;53.478;10.182;2022-08-02T08:26:46;18.90;99.90
23744;DHT22;12052;53.478;10.182;2022-08-02T08:29:12;19.10;99.90
23744;DHT22;12052;53.478;10.182;2022-08-02T08:31:37;19.20;99.90
23744;DHT22;12052;53.478;10.182;2022-08-02T08:34:03;19.30;99.90
23744;DHT22;12052;53.478;10.182;2022-08-02T08:36:29;19.40;99.90
23744;DHT22;12052;53.478;10.182;2022-08-02T08:38:55;19.40;99.90
23744;DHT22;12052;53.478;10.182;2022-08-02T08:41:21;19.50;99.90
23744;DHT22;12052;53.478;10.182;2022-08-02T08:43:47;19.80;99.90
23744;DHT22;12052;53.478;10.182;2022-08-02T08:46:24;19.80;99.90
23744;DHT22;12052;53.478;10.182;2022-08-02T08:48:52;20.00;99.90
23744;DHT22;12052;53.478;10.182;2022-08-02T08:51:22;20.20;99.90
23744;DHT22;12052;53.478;10.182;2022-08-02T08:53:52;20.40;99.90
23744;DHT22;12052;53.478;10.182;2022-08-02T08:56:19;20.50;99.90
23744;DHT22;12052;53.478;10.182;2022-08-02T08:58:45;20.30;99.90
23744;DHT22;12052;53.478;10.182;2022-08-02T09:01:14;20.30;99.90
23744;DHT22;12052;53.478;10.182;2022-08-02T09:03:42;20.30;99.90
23744;DHT22;12052;53.478;10.182;2022-08-02T09:06:08;20.60;99.90
23744;DHT22;12052;53.478;10.182;2022-08-02T09:08:33;20.60;99.90
23744;DHT22;12052;53.478;10.182;2022-08-02T09:10:59;20.60;99.90
23744;DHT22;12052;53.478;10.182;2022-08-02T09:13:27;20.70;99.90
23744;DHT22;12052;53.478;10.182;2022-08-02T09:21:01;21.00;99.90
23744;DHT22;12052;53.478;10.182;2022-08-02T09:23:34;21.10;99.90
23744;DHT22;12052;53.478;10.182;2022-08-02T09:26:08;21.20;99.90
23744;DHT22;12052;53.478;10.182;2022-08-02T09:28:39;21.30;99.90
23744;DHT22;12052;53.478;10.182;2022-08-02T09:31:10;21.40;99.90
23744;DHT22;12052;53.478;10.182;2022-08-02T09:33:37;21.40;99.90
23744;DHT22;12052;53.478;10.182;2022-08-02T09:36:07;21.40;99.90
23744;DHT22;12052;53.478;10.182;2022-08-02T09:38:34;21.50;99.90
23744;DHT22;12052;53.478;10.182;2022-08-02T09:41:01;21.70;99.90
23744;DHT22;12052;53.478;10.182;2022-08-02T09:43:35;21.80;99.90
23744;DHT22;12052;53.478;10.182;2022-08-02T09:46:20;21.90;99.90
23744;DHT22;12052;53.478;10.182;2022-08-02T09:48:51;22.00;99.90
23744;DHT22;12052;53.478;10.182;2022-08-02T09:51:28;21.80;99.90
23744;DHT22;12052;53.478;10.182;2022-08-02T09:53:59;21.90;99.90
23744;DHT22;12052;53.478;10.182;2022-08-02T09:56:28;22.00;99.90
23744;DHT22;12052;53.478;10.182;2022-08-02T09:58:54;22.00;99.90
23744;DHT22;12052;53.478;10.182;2022-08-02T10:01:30;22.10;99.90
23744;DHT22;12052;53.478;10.182;2022-08-02T10:04:02;22.30;99.90
23744;DHT22;12052;53.478;10.182;2022-08-02T10:06:30;22.40;99.90
23744;DHT22;12052;53.478;10.182;2022-08-02T10:08:56;22.60;99.90
23744;DHT22;12052;53.478;10.182;2022-08-02T10:11:23;22.60;99.90
23744;DHT22;12052;53.478;10.182;2022-08-02T10:13:49;22.60;99.90
23744;DHT22;12052;53.478;10.182;2022-08-02T10:16:16;22.80;99.90
23744;DHT22;12052;53.478;10.182;2022-08-02T10:18:43;22.80;99.90
23744;DHT22;12052;53.478;10.182;2022-08-02T10:21:15;23.00;99.90
23744;DHT22;12052;53.478;10.182;2022-08-02T10:23:43;23.10;99.90
23744;DHT22;12052;53.478;10.182;2022-08-02T10:26:14;23.10;99.90
23744;DHT22;12052;53.478;10.182;2022-08-02T10:28:41;23.40;99.90
23744;DHT22;12052;53.478;10.182;2022-08-02T10:31:09;23.40;99.90
23744;DHT22;12052;53.478;10.182;2022-08-02T10:33:37;23.50;99.90
23744;DHT22;12052;53.478;10.182;2022-08-02T10:36:05;23.50;99.90
23744;DHT22;12052;53.478;10.182;2022-08-02T10:38:33;23.50;99.90
23744;DHT22;12052;53.478;10.182;2022-08-02T10:40:59;23.50;99.90
23744;DHT22;12052;53.478;10.182;2022-08-02T10:46:31;23.70;99.90
23744;DHT22;12052;53.478;10.182;2022-08-02T10:49:14;23.60;99.90
23744;DHT22;12052;53.478;10.182;2022-08-02T10:54:26;23.80;99.90
23744;DHT22;12052;53.478;10.182;2022-08-02T10:56:54;23.80;99.90
23744;DHT22;12052;53.478;10.182;2022-08-02T10:59:34;23.90;99.90
23744;DHT22;12052;53.478;10.182;2022-08-02T11:02:02;23.90;99.90
23744;DHT22;12052;53.478;10.182;2022-08-02T11:07:19;23.50;99.90
23744;DHT22;12052;53.478;10.182;2022-08-02T11:09:48;23.40;99.90
23744;DHT22;12052;53.478;10.182;2022-08-02T11:12:16;23.40;99.90
23744;DHT22;12052;53.478;10.182;2022-08-02T11:14:44;23.40;99.90
23744;DHT22;12052;53.478;10.182;2022-08-02T11:17:14;23.50;99.90
23744;DHT22;12052;53.478;10.182;2022-08-02T11:22:38;23.90;99.90
23744;DHT22;12052;53.478;10.182;2022-08-02T11:25:33;24.00;99.90
23744;DHT22;12052;53.478;10.182;2022-08-02T11:28:07;24.20;99.90
23744;DHT22;12052;53.478;10.182;2022-08-02T11:30:34;24.40;99.90
23744;DHT22;12052;53.478;10.182;2022-08-02T11:33:00;24.60;99.90
23744;DHT22;12052;53.478;10.182;2022-08-02T11:35:36;24.80;99.90
23744;DHT22;12052;53.478;10.182;2022-08-02T11:38:18;24.50;99.90
23744;DHT22;12052;53.478;10.182;2022-08-02T11:40:45;24.70;99.90
23744;DHT22;12052;53.478;10.182;2022-08-02T11:43:24;24.70;99.90
23744;DHT22;12052;53.478;10.182;2022-08-02T11:45:55;24.90;99.90
23744;DHT22;12052;53.478;10.182;2022-08-02T11:48:31;24.70;99.90
23744;DHT22;12052;53.478;10.182;2022-08-02T11:53:50;24.90;99.90
23744;DHT22;12052;53.478;10.182;2022-08-02T11:56:24;24.90;99.90
23744;DHT22;12052;53.478;10.182;2022-08-02T11:59:07;24.90;99.90
23744;DHT22;12052;53.478;10.182;2022-08-02T12:01:38;25.00;99.90
23744;DHT22;12052;53.478;10.182;2022-08-02T12:04:04;24.90;99.90
23744;DHT22;12052;53.478;10.182;2022-08-02T12:06:31;25.00;99.90
23744;DHT22;12052;53.478;10.182;2022-08-02T12:11:30;25.10;99.90
23744;DHT22;12052;53.478;10.182;2022-08-02T12:13:56;25.20;99.90
23744;DHT22;12052;53.478;10.182;2022-08-02T12:16:22;25.30;99.90
23744;DHT22;12052;53.478;10.182;2022-08-02T12:19:06;25.10;99.90
23744;DHT22;12052;53.478;10.182;2022-08-02T12:24:36;25.20;99.90
23744;DHT22;12052;53.478;10.182;2022-08-02T12:27:01;25.20;99.90
23744;DHT22;12052;53.478;10.182;2022-08-02T12:32:00;25.40;99.90
23744;DHT22;12052;53.478;10.182;2022-08-02T12:34:27;25.50;99.90
23744;DHT22;12052;53.478;10.182;2022-08-02T12:37:09;25.60;99.90
23744;DHT22;12052;53.478;10.182;2022-08-02T12:39:42;25.60;99.90
23744;DHT22;12052;53.478;10.182;2022-08-02T12:42:10;25.60;99.90
23744;DHT22;12052;53.478;10.182;2022-08-02T12:44:43;25.70;99.90
23744;DHT22;12052;53.478;10.182;2022-08-02T12:47:14;25.70;99.90
23744;DHT22;12052;53.478;10.182;2022-08-02T12:49:39;25.80;99.90
23744;DHT22;12052;53.478;10.182;2022-08-02T12:52:21;25.90;99.90
23744;DHT22;12052;53.478;10.182;2022-08-02T12:54:47;26.00;99.90
23744;DHT22;12052;53.478;10.182;2022-08-02T12:57:15;25.90;99.90
23744;DHT22;12052;53.478;10.182;2022-08-02T12:59:47;26.00;99.90
23744;DHT22;12052;53.478;10.182;2022-08-02T13:02:13;26.10;99.90
23744;DHT22;12052;53.478;10.182;2022-08-02T13:04:41;26.00;99.90
23744;DHT22;12052;53.478;10.182;2022-08-02T13:07:07;26.00;99.90
23744;DHT22;12052;53.478;10.182;2022-08-02T13:09:37;26.00;99.90
23744;DHT22;12052;53.478;10.182;2022-08-02T13:12:04;25.90;99.70
23744;DHT22;12052;53.478;10.182;2022-08-02T13:14:31;25.70;98.50
23744;DHT22;12052;53.478;10.182;2022-08-02T13:16:57;25.70;99.50
23744;DHT22;12052;53.478;10.182;2022-08-02T13:19:22;25.70;98.10
23744;DHT22;12052;53.478;10.182;2022-08-02T13:21:48;25.70;98.70
23744;DHT22;12052;53.478;10.182;2022-08-02T13:24:14;25.80;98.90
23744;DHT22;12052;53.478;10.182;2022-08-02T13:26:44;25.90;99.30
23744;DHT22;12052;53.478;10.182;2022-08-02T13:29:10;25.90;99.20
23744;DHT22;12052;53.478;10.182;2022-08-02T13:31:36;25.90;98.40
23744;DHT22;12052;53.478;10.182;2022-08-02T13:34:07;25.90;99.90
23744;DHT22;12052;53.478;10.182;2022-08-02T13:36:33;26.00;98.50
23744;DHT22;12052;53.478;10.182;2022-08-02T13:39:00;26.00;97.80
23744;DHT22;12052;53.478;10.182;2022-08-02T13:41:26;26.00;97.40
23744;DHT22;12052;53.478;10.182;2022-08-02T13:43:52;26.00;97.80
23744;DHT22;12052;53.478;10.182;2022-08-02T13:46:17;26.10;98.90
23744;DHT22;12052;53.478;10.182;2022-08-02T13:48:44;26.10;97.80
23744;DHT22;12052;53.478;10.182;2022-08-02T13:51:10;26.00;97.30
23744;DHT22;12052;53.478;10.182;2022-08-02T13:53:39;25.90;97.60
23744;DHT22;12052;53.478;10.182;2022-08-02T13:56:05;25.90;98.00
23744;DHT22;12052;53.478;10.182;2022-08-02T13:58:31;25.90;97.90
23744;DHT22;12052;53.478;10.182;2022-08-02T14:00:56;26.00;98.10
23744;DHT22;12052;53.478;10.182;2022-08-02T14:03:22;26.10;97.60
23744;DHT22;12052;53.478;10.182;2022-08-02T14:05:48;26.20;99.00
23744;DHT22;12052;53.478;10.182;2022-08-02T14:08:15;26.30;97.10
23744;DHT22;12052;53.478;10.182;2022-08-02T14:10:41;26.40;98.40
23744;DHT22;12052;53.478;10.182;2022-08-02T14:13:06;26.40;97.20
23744;DHT22;12052;53.478;10.182;2022-08-02T14:15:32;26.60;97.20
23744;DHT22;12052;53.478;10.182;2022-08-02T14:17:58;26.50;97.30
23744;DHT22;12052;53.478;10.182;2022-08-02T14:20:24;26.40;97.50
23744;DHT22;12052;53.478;10.182;2022-08-02T14:22:49;26.20;98.00
23744;DHT22;12052;53.478;10.182;2022-08-02T14:25:15;26.20;97.30
23744;DHT22;12052;53.478;10.182;2022-08-02T14:27:41;26.20;97.80
23744;DHT22;12052;53.478;10.182;2022-08-02T14:30:07;26.20;98.50
23744;DHT22;12052;53.478;10.182;2022-08-02T14:32:33;26.20;97.80
23744;DHT22;12052;53.478;10.182;2022-08-02T14:34:58;26.20;98.10
23744;DHT22;12052;53.478;10.182;2022-08-02T14:37:24;26.20;98.10
23744;DHT22;12052;53.478;10.182;2022-08-02T14:39:49;26.20;97.80
23744;DHT22;12052;53.478;10.182;2022-08-02T14:42:15;26.20;98.30
23744;DHT22;12052;53.478;10.182;2022-08-02T14:44:40;26.20;98.60
23744;DHT22;12052;53.478;10.182;2022-08-02T14:47:06;26.20;99.40
23744;DHT22;12052;53.478;10.182;2022-08-02T14:49:31;26.20;98.90
23744;DHT22;12052;53.478;10.182;2022-08-02T14:51:57;26.20;99.00
23744;DHT22;12052;53.478;10.182;2022-08-02T14:54:24;26.20;99.30
23744;DHT22;12052;53.478;10.182;2022-08-02T14:56:56;26.20;99.70
23744;DHT22;12052;53.478;10.182;2022-08-02T14:59:21;26.20;99.80
23744;DHT22;12052;53.478;10.182;2022-08-02T15:01:47;26.20;99.40
23744;DHT22;12052;53.478;10.182;2022-08-02T15:04:12;26.10;99.90
23744;DHT22;12052;53.478;10.182;2022-08-02T15:06:38;26.20;99.60
23744;DHT22;12052;53.478;10.182;2022-08-02T15:09:04;26.10;99.70
23744;DHT22;12052;53.478;10.182;2022-08-02T15:11:29;26.10;99.90
23744;DHT22;12052;53.478;10.182;2022-08-02T15:13:55;26.20;99.90
23744;DHT22;12052;53.478;10.182;2022-08-02T15:16:23;26.30;99.90
23744;DHT22;12052;53.478;10.182;2022-08-02T15:18:49;26.30;99.90
23744;DHT22;12052;53.478;10.182;2022-08-02T15:21:14;26.20;99.90
23744;DHT22;12052;53.478;10.182;2022-08-02T15:23:40;26.30;99.90
23744;DHT22;12052;53.478;10.182;2022-08-02T15:26:05;26.40;99.90
23744;DHT22;12052;53.478;10.182;2022-08-02T15:28:31;26.40;99.90
23744;DHT22;12052;53.478;10.182;2022-08-02T15:30:57;26.50;99.90
23744;DHT22;12052;53.478;10.182;2022-08-02T15:33:23;26.40;99.70
23744;DHT22;12052;53.478;10.182;2022-08-02T15:35:49;26.40;99.90
23744;DHT22;12052;53.478;10.182;2022-08-02T15:38:14;26.40;99.90
23744;DHT22;12052;53.478;10.182;2022-08-02T15:40:40;26.40;99.90
23744;DHT22;12052;53.478;10.182;2022-08-02T15:43:07;26.30;99.90
23744;DHT22;12052;53.478;10.182;2022-08-02T15:45:34;26.40;99.90
23744;DHT22;12052;53.478;10.182;2022-08-02T15:47:59;26.40;99.90
23744;DHT22;12052;53.478;10.182;2022-08-02T15:50:25;26.50;99.90
23744;DHT22;12052;53.478;10.182;2022-08-02T15:52:51;26.40;99.90
23744;DHT22;12052;53.478;10.182;2022-08-02T15:55:16;26.50;99.90